createdAt,value
2023-04-02T00:00:01.659Z,12.65
2023-04-02T00:03:08.791Z,12.71
2023-04-02T00:06:30.461Z,12.69
2023-04-02T00:09:36.797Z,12.67
2023-04-02T00:12:39.048Z,12.64
2023-04-02T00:15:43.773Z,12.63
2023-04-02T00:18:49.138Z,12.58
2023-04-02T00:21:52.403Z,12.56
2023-04-02T00:24:56.213Z,12.54
2023-04-02T00:27:58.735Z,12.52
2023-04-02T00:31:01.068Z,12.49
2023-04-02T00:34:04.827Z,12.48
2023-04-02T00:37:07.082Z,12.51
2023-04-02T00:40:30.312Z,12.53
2023-04-02T00:43:36.581Z,12.55
2023-04-02T00:46:49.536Z,12.57
2023-04-02T00:49:59.873Z,12.59
2023-04-02T00:53:10.620Z,12.43
2023-04-02T00:56:39.909Z,12.42
2023-04-02T00:59:57.092Z,12.36
2023-04-02T01:03:17.774Z,12.42
2023-04-02T01:06:20.668Z,12.39
2023-04-02T01:09:41.323Z,12.53
2023-04-02T01:12:58.845Z,12.61
2023-04-02T01:16:09.424Z,12.69
2023-04-02T01:19:36.559Z,12.66
2023-04-02T01:23:02.993Z,12.62
2023-04-02T01:26:20.956Z,12.59
2023-04-02T01:29:38.935Z,12.61
2023-04-02T01:32:43.003Z,12.53
2023-04-02T01:35:48.995Z,12.45
2023-04-02T01:38:57.261Z,12.46
2023-04-02T01:42:27.013Z,12.42
2023-04-02T01:45:29.658Z,12.40
2023-04-02T01:48:32.075Z,12.40
2023-04-02T01:51:36.164Z,12.42
2023-04-02T01:54:41.721Z,12.34
2023-04-02T01:57:47.716Z,12.39
2023-04-02T02:00:53.733Z,12.46
2023-04-02T02:03:56.132Z,12.52
2023-04-02T02:07:00.851Z,12.53
2023-04-02T02:10:04.345Z,12.59
2023-04-02T02:13:06.886Z,12.59
2023-04-02T02:16:12.975Z,12.61
2023-04-02T02:19:21.409Z,12.63
2023-04-02T02:22:29.873Z,12.64
2023-04-02T02:25:34.595Z,12.68
2023-04-02T02:28:40.253Z,12.71
2023-04-02T02:31:44.758Z,12.69
2023-04-02T02:34:52.648Z,12.64
2023-04-02T02:38:00.899Z,12.62
2023-04-02T02:41:30.774Z,12.50
2023-04-02T02:44:36.315Z,12.45
2023-04-02T02:47:42.497Z,12.49
2023-04-02T02:50:46.256Z,12.44
2023-04-02T02:53:52.467Z,12.46
2023-04-02T02:56:59.255Z,12.55
2023-04-02T03:00:05.934Z,12.60
2023-04-02T03:03:12.618Z,12.58
2023-04-02T03:06:17.147Z,12.60
2023-04-02T03:09:39.538Z,12.60
2023-04-02T03:12:54.426Z,12.63
2023-04-02T03:16:21.022Z,12.57
2023-04-02T03:19:48.243Z,12.55
2023-04-02T03:22:58.645Z,12.51
2023-04-02T03:26:01.039Z,12.48
2023-04-02T03:29:16.432Z,12.43
2023-04-02T03:32:20.993Z,12.40
2023-04-02T03:35:43.413Z,12.32
2023-04-02T03:39:27.249Z,12.30
2023-04-02T03:42:43.742Z,12.25
2023-04-02T03:45:50.410Z,12.24
2023-04-02T03:48:55.849Z,12.23
2023-04-02T03:52:10.990Z,12.20
2023-04-02T03:55:26.148Z,12.23
2023-04-02T03:59:16.667Z,12.18
2023-04-02T04:02:35.803Z,12.25
2023-04-02T04:05:48.342Z,12.27
2023-04-02T04:09:12.514Z,12.28
2023-04-02T04:12:31.870Z,12.23
2023-04-02T04:15:48.953Z,12.32
2023-04-02T04:18:57.266Z,12.26
2023-04-02T04:22:20.422Z,12.23
2023-04-02T04:25:29.899Z,12.22
2023-04-02T04:29:05.844Z,12.22
2023-04-02T04:32:42.775Z,12.16
2023-04-02T04:35:58.776Z,12.16
2023-04-02T04:39:14.609Z,12.22
2023-04-02T04:42:25.657Z,12.30
2023-04-02T04:45:36.755Z,12.29
2023-04-02T04:48:49.180Z,12.38
2023-04-02T04:51:55.245Z,12.44
2023-04-02T04:54:59.554Z,12.45
2023-04-02T04:58:24.937Z,12.62
2023-04-02T05:01:58.198Z,12.78
2023-04-02T05:05:01.051Z,13.00
2023-04-02T05:08:17.019Z,13.23
2023-04-02T05:11:26.559Z,13.40
2023-04-02T05:14:36.810Z,13.55
2023-04-02T05:17:51.204Z,13.75
2023-04-02T05:21:24.020Z,14.03
2023-04-02T05:24:51.303Z,14.44
2023-04-02T05:28:12.428Z,14.75
2023-04-02T05:31:36.228Z,15.18
2023-04-02T05:34:40.989Z,15.36
2023-04-02T05:37:43.672Z,15.74
2023-04-02T05:40:46.436Z,16.09
2023-04-02T05:43:49.965Z,16.65
2023-04-02T05:47:03.652Z,17.51
2023-04-02T05:50:18.019Z,19.33
2023-04-02T05:53:28.044Z,21.48
2023-04-02T05:56:41.541Z,18.57
2023-04-02T05:59:48.380Z,17.35
2023-04-02T06:03:00.097Z,17.03
2023-04-02T06:06:08.129Z,16.94
2023-04-02T06:09:55.430Z,16.70
2023-04-02T06:13:08.597Z,16.32
2023-04-02T06:16:16.708Z,16.45
2023-04-02T06:19:23.975Z,18.08
2023-04-02T06:22:33.296Z,18.46
2023-04-02T06:25:39.764Z,17.76
2023-04-02T06:28:47.978Z,17.18
2023-04-02T06:31:56.710Z,17.04
2023-04-02T06:35:00.381Z,18.78
2023-04-02T06:38:04.816Z,22.67
2023-04-02T06:41:17.484Z,25.47
2023-04-02T06:44:34.335Z,21.70
2023-04-02T06:47:57.497Z,19.93
2023-04-02T06:51:14.484Z,19.13
2023-04-02T06:54:17.911Z,18.33
2023-04-02T06:57:23.744Z,17.88
2023-04-02T07:00:35.489Z,17.65
2023-04-02T07:03:39.993Z,17.38
2023-04-02T07:06:51.338Z,17.04
2023-04-02T07:09:54.636Z,17.06
2023-04-02T07:12:57.021Z,17.21
2023-04-02T07:16:00.457Z,17.28
2023-04-02T07:19:04.291Z,17.14
2023-04-02T07:22:09.216Z,17.28
2023-04-02T07:25:15.555Z,17.22
2023-04-02T07:28:18.679Z,17.12
2023-04-02T07:31:25.742Z,17.29
2023-04-02T07:34:28.086Z,17.44
2023-04-02T07:37:30.705Z,17.74
2023-04-02T07:40:32.952Z,17.83
2023-04-02T07:43:36.149Z,17.83
2023-04-02T07:46:38.446Z,18.19
2023-04-02T07:49:40.886Z,18.22
2023-04-02T07:52:43.881Z,18.44
2023-04-02T07:55:46.139Z,18.59
2023-04-02T07:58:49.102Z,18.90
2023-04-02T08:01:52.790Z,19.08
2023-04-02T08:04:55.022Z,19.30
2023-04-02T08:07:57.432Z,19.11
2023-04-02T08:10:59.775Z,18.81
2023-04-02T08:14:02.009Z,18.62
2023-04-02T08:17:04.505Z,18.52
2023-04-02T08:20:08.019Z,18.63
2023-04-02T08:23:17.025Z,18.89
2023-04-02T08:26:19.254Z,19.03
2023-04-02T08:29:22.121Z,19.21
2023-04-02T08:32:26.458Z,19.80
2023-04-02T08:35:28.837Z,20.63
2023-04-02T08:38:31.195Z,20.88
2023-04-02T08:41:39.436Z,21.28
2023-04-02T08:45:08.121Z,21.47
2023-04-02T08:48:16.848Z,21.09
2023-04-02T08:51:27.798Z,21.14
2023-04-02T08:54:38.069Z,20.72
2023-04-02T08:57:52.251Z,20.35
2023-04-02T09:00:56.376Z,20.10
2023-04-02T09:03:59.108Z,19.93
2023-04-02T09:07:01.222Z,19.68
2023-04-02T09:10:04.422Z,19.58
2023-04-02T09:13:18.539Z,19.60
2023-04-02T09:16:44.324Z,19.51
2023-04-02T09:20:21.399Z,19.44
2023-04-02T09:23:26.061Z,19.30
2023-04-02T09:26:33.369Z,19.61
2023-04-02T09:33:46.411Z,19.92
2023-04-02T09:36:48.756Z,19.97
2023-04-02T09:39:51.780Z,19.81
2023-04-02T09:43:24.533Z,19.85
2023-04-02T09:46:26.824Z,19.71
2023-04-02T09:49:32.150Z,19.57
2023-04-02T09:52:34.418Z,19.49
2023-04-02T09:55:37.115Z,19.15
2023-04-02T09:58:40.744Z,19.02
2023-04-02T10:01:48.861Z,18.98
2023-04-02T10:04:51.746Z,18.84
2023-04-02T10:07:55.478Z,18.68
2023-04-02T10:11:00.725Z,18.50
2023-04-02T10:14:10.948Z,18.43
2023-04-02T10:17:17.980Z,18.37
2023-04-02T10:20:23.417Z,18.36
2023-04-02T10:23:28.635Z,18.46
2023-04-02T10:26:38.264Z,18.47
2023-04-02T10:29:49.460Z,18.56
2023-04-02T10:32:54.831Z,18.62
2023-04-02T10:36:09.826Z,18.64
2023-04-02T10:39:31.402Z,18.56
2023-04-02T10:42:36.653Z,18.51
2023-04-02T10:45:51.664Z,18.58
2023-04-02T10:48:53.879Z,18.62
2023-04-02T10:52:36.186Z,18.45
2023-04-02T10:55:44.265Z,18.45
2023-04-02T10:59:00.845Z,18.56
2023-04-02T11:02:23.319Z,18.63
2023-04-02T11:05:29.180Z,18.74
2023-04-02T11:08:42.022Z,18.84
2023-04-02T11:11:45.565Z,18.86
2023-04-02T11:14:48.247Z,18.82
2023-04-02T11:17:50.523Z,18.79
2023-04-02T11:20:58.570Z,18.83
2023-04-02T11:24:02.161Z,18.87
2023-04-02T11:27:09.904Z,18.73
2023-04-02T11:30:18.663Z,18.38
2023-04-02T11:33:39.870Z,18.12
2023-04-02T11:36:52.748Z,17.98
2023-04-02T11:40:02.525Z,17.88
2023-04-02T11:43:32.850Z,17.83
2023-04-02T11:46:45.521Z,17.79
2023-04-02T11:50:03.201Z,17.68
2023-04-02T11:53:21.165Z,17.59
2023-04-02T11:56:31.487Z,17.51
2023-04-02T11:59:41.035Z,17.33
2023-04-02T12:03:13.538Z,17.35
2023-04-02T12:06:32.362Z,17.34
2023-04-02T12:09:58.986Z,17.40
2023-04-02T12:13:01.367Z,17.21
2023-04-02T12:16:03.903Z,17.34
2023-04-02T12:19:08.826Z,17.46
2023-04-02T12:22:20.264Z,17.61
2023-04-02T12:25:40.272Z,17.63
2023-04-02T12:28:42.563Z,17.66
2023-04-02T12:31:46.521Z,17.72
2023-04-02T12:34:49.153Z,17.73
2023-04-02T12:37:53.526Z,17.79
2023-04-02T12:41:03.619Z,17.77
2023-04-02T12:44:11.607Z,17.87
2023-04-02T12:47:13.930Z,18.00
2023-04-02T12:50:17.310Z,18.00
2023-04-02T12:53:22.699Z,17.95
2023-04-02T12:56:25.149Z,17.76
2023-04-02T12:59:36.079Z,17.52
2023-04-02T13:02:47.039Z,17.52
2023-04-02T13:05:54.711Z,17.57
2023-04-02T13:08:57.112Z,17.59
2023-04-02T13:11:59.478Z,17.65
2023-04-02T13:15:08.028Z,17.65
2023-04-02T13:18:13.328Z,17.55
2023-04-02T13:21:21.650Z,17.50
2023-04-02T13:24:26.223Z,17.50
2023-04-02T13:27:28.437Z,17.63
2023-04-02T13:30:31.169Z,17.78
2023-04-02T13:33:33.562Z,17.88
2023-04-02T13:36:37.304Z,18.03
2023-04-02T13:39:39.540Z,18.04
2023-04-02T13:42:43.149Z,18.05
2023-04-02T13:45:49.077Z,18.08
2023-04-02T13:48:52.552Z,18.02
2023-04-02T13:51:59.842Z,17.86
2023-04-02T13:55:02.263Z,17.74
2023-04-02T13:58:05.439Z,17.73
2023-04-02T14:01:08.510Z,17.84
2023-04-02T14:04:16.262Z,17.74
2023-04-02T14:07:31.917Z,17.84
2023-04-02T14:10:40.240Z,17.91
2023-04-02T14:13:54.589Z,17.89
2023-04-02T14:17:17.928Z,17.66
2023-04-02T14:20:42.765Z,17.65
2023-04-02T14:24:08.219Z,17.54
2023-04-02T14:27:31.653Z,17.50
2023-04-02T14:30:55.373Z,17.51
2023-04-02T14:34:17.662Z,17.47
2023-04-02T14:37:27.114Z,17.54
2023-04-02T14:40:39.149Z,17.46
2023-04-02T14:43:44.050Z,17.40
2023-04-02T14:46:46.867Z,17.30
2023-04-02T14:49:54.711Z,17.10
2023-04-02T14:53:08.671Z,16.94
2023-04-02T14:56:12.459Z,16.84
2023-04-02T14:59:33.218Z,16.65
2023-04-02T15:02:46.248Z,16.63
2023-04-02T15:05:58.358Z,16.62
2023-04-02T15:09:20.868Z,16.56
2023-04-02T15:12:27.044Z,16.44
2023-04-02T15:15:40.554Z,16.35
2023-04-02T15:18:43.306Z,16.31
2023-04-02T15:22:08.847Z,16.18
2023-04-02T15:25:18.302Z,15.90
2023-04-02T15:28:30.041Z,15.60
2023-04-02T15:31:34.421Z,15.39
2023-04-02T15:34:45.446Z,14.99
2023-04-02T15:37:56.815Z,14.78
2023-04-02T15:41:02.681Z,14.68
2023-04-02T15:44:10.949Z,14.67
2023-04-02T15:47:34.422Z,14.67
2023-04-02T15:50:58.305Z,14.69
2023-04-02T15:54:03.433Z,14.68
2023-04-02T15:57:05.955Z,14.61
2023-04-02T16:00:20.196Z,14.66
2023-04-02T16:03:56.212Z,14.53
2023-04-02T16:07:13.481Z,14.38
2023-04-02T16:10:41.263Z,14.31
2023-04-02T16:13:45.122Z,14.27
2023-04-02T16:16:49.179Z,14.21
2023-04-02T16:19:54.695Z,14.34
2023-04-02T16:23:01.442Z,14.49
2023-04-02T16:26:18.949Z,14.65
2023-04-02T16:29:31.972Z,14.73
2023-04-02T16:32:48.100Z,14.77
2023-04-02T16:36:00.672Z,14.90
2023-04-02T16:39:34.792Z,15.04
2023-04-02T16:42:39.882Z,15.12
2023-04-02T16:45:57.843Z,15.06
2023-04-02T16:49:08.106Z,14.99
2023-04-02T16:52:13.327Z,14.93
2023-04-02T16:55:19.718Z,14.91
2023-04-02T16:59:03.769Z,14.88
2023-04-02T17:02:28.871Z,14.90
2023-04-02T17:05:32.901Z,14.90
2023-04-02T17:08:44.770Z,14.89
2023-04-02T17:11:50.718Z,14.88
2023-04-02T17:14:58.892Z,14.78
2023-04-02T17:18:02.009Z,14.63
2023-04-02T17:21:09.814Z,14.66
2023-04-02T17:24:11.997Z,14.63
2023-04-02T17:27:31.433Z,14.60
2023-04-02T17:31:00.456Z,14.49
2023-04-02T17:34:17.117Z,14.35
2023-04-02T17:37:28.035Z,14.30
2023-04-02T17:40:32.063Z,14.16
2023-04-02T17:43:37.433Z,14.14
2023-04-02T17:46:49.720Z,14.12
2023-04-02T17:50:29.450Z,14.06
2023-04-02T17:53:37.098Z,13.93
2023-04-02T17:56:55.104Z,13.84
2023-04-02T18:00:16.751Z,13.81
2023-04-02T18:03:43.562Z,13.71
2023-04-02T18:06:51.943Z,13.70
2023-04-02T18:10:22.155Z,13.71
2023-04-02T18:13:35.734Z,13.71
2023-04-02T18:17:06.794Z,13.55
2023-04-02T18:20:25.731Z,13.48
2023-04-02T18:24:08.094Z,13.41
2023-04-02T18:27:34.854Z,13.27
2023-04-02T18:31:01.941Z,13.18
2023-04-02T18:34:10.037Z,13.12
2023-04-02T18:37:49.490Z,13.08
2023-04-02T18:41:30.215Z,13.10
2023-04-02T18:44:50.000Z,13.06
2023-04-02T18:48:06.138Z,13.00
2023-04-02T18:51:16.459Z,12.88
2023-04-02T18:54:23.703Z,12.84
2023-04-02T18:57:29.668Z,12.79
2023-04-02T19:00:39.544Z,12.84
2023-04-02T19:03:51.876Z,12.75
2023-04-02T19:07:05.856Z,12.72
2023-04-02T19:10:20.422Z,12.72
2023-04-02T19:13:22.759Z,12.70
2023-04-02T19:16:37.214Z,12.68
2023-04-02T19:20:21.446Z,12.68
2023-04-02T19:23:29.861Z,12.65
2023-04-02T19:26:54.758Z,12.62
2023-04-02T19:30:09.658Z,12.52
2023-04-02T19:33:36.523Z,12.52
2023-04-02T19:36:55.415Z,12.47
2023-04-02T19:40:04.751Z,12.46
2023-04-02T19:43:07.582Z,12.40
2023-04-02T19:46:09.985Z,12.41
2023-04-02T19:49:13.040Z,12.36
2023-04-02T19:52:15.462Z,12.32
2023-04-02T19:55:17.637Z,12.22
2023-04-02T19:58:29.749Z,12.15
2023-04-02T20:01:32.000Z,12.17
2023-04-02T20:04:34.322Z,12.20
2023-04-02T20:07:36.584Z,12.23
2023-04-02T20:10:39.149Z,12.15
2023-04-02T20:13:41.440Z,12.07
2023-04-02T20:16:45.382Z,12.01
2023-04-02T20:19:48.144Z,11.95
2023-04-02T20:22:50.515Z,11.97
2023-04-02T20:25:56.364Z,11.94
2023-04-02T20:28:58.707Z,11.97
2023-04-02T20:32:00.978Z,11.97
2023-04-02T20:35:04.285Z,11.95
2023-04-02T20:38:06.655Z,11.96
2023-04-02T20:41:09.696Z,11.93
2023-04-02T20:44:13.049Z,11.96
2023-04-02T20:47:15.394Z,11.92
2023-04-02T20:50:17.694Z,11.83
2023-04-02T20:53:20.248Z,11.76
2023-04-02T20:56:26.705Z,11.69
2023-04-02T20:59:29.030Z,11.71
2023-04-02T21:02:31.379Z,11.67
2023-04-02T21:05:33.694Z,11.64
2023-04-02T21:08:37.024Z,11.69
2023-04-02T21:11:39.482Z,11.64
2023-04-02T21:14:41.763Z,11.73
2023-04-02T21:17:44.759Z,11.69
2023-04-02T21:20:55.369Z,11.64
2023-04-02T21:24:03.361Z,11.56
2023-04-02T21:27:05.773Z,11.48
2023-04-02T21:30:08.594Z,11.49
2023-04-02T21:33:10.969Z,11.51
2023-04-02T21:36:19.021Z,11.49
2023-04-02T21:39:23.100Z,11.47
2023-04-02T21:42:25.951Z,11.43
2023-04-02T21:45:28.428Z,11.48
2023-04-02T21:48:31.742Z,11.53
2023-04-02T21:51:35.234Z,11.54
2023-04-02T21:54:37.522Z,11.58
2023-04-02T21:57:39.987Z,11.56
2023-04-02T22:00:42.365Z,11.64
2023-04-02T22:03:45.266Z,11.62
2023-04-02T22:06:48.389Z,11.66
2023-04-02T22:09:50.708Z,11.64
2023-04-02T22:12:52.911Z,11.53
2023-04-02T22:16:00.405Z,11.40
2023-04-02T22:19:06.048Z,11.31
2023-04-02T22:22:08.455Z,11.32
2023-04-02T22:25:10.709Z,11.29
2023-04-02T22:28:12.976Z,11.33
2023-04-02T22:31:19.142Z,11.36
2023-04-02T22:34:21.503Z,11.37
2023-04-02T22:37:23.940Z,11.32
2023-04-02T22:40:26.385Z,11.32
2023-04-02T22:43:28.634Z,11.35
2023-04-02T22:46:31.636Z,11.35
2023-04-02T22:49:33.823Z,11.23
2023-04-02T22:52:36.131Z,11.18
2023-04-02T22:55:38.427Z,11.14
2023-04-02T22:58:40.913Z,11.08
2023-04-02T23:01:43.849Z,11.06
2023-04-02T23:04:46.230Z,11.06
2023-04-02T23:07:48.459Z,11.03
2023-04-02T23:10:50.893Z,11.07
2023-04-02T23:13:54.806Z,11.07
2023-04-02T23:16:57.146Z,11.06
2023-04-02T23:19:59.424Z,11.03
2023-04-02T23:23:01.638Z,11.02
2023-04-02T23:26:07.207Z,11.02
2023-04-02T23:29:09.797Z,11.06
2023-04-02T23:32:12.039Z,10.94
2023-04-02T23:35:14.394Z,10.97
2023-04-02T23:38:16.632Z,10.87
2023-04-02T23:41:18.869Z,10.78
2023-04-02T23:44:21.143Z,10.71
2023-04-02T23:47:23.452Z,10.74
2023-04-02T23:50:25.809Z,10.75
2023-04-02T23:53:28.015Z,10.74
2023-04-02T23:56:30.602Z,10.70
2023-04-02T23:59:32.910Z,10.71
